Lewiston, ID

10:56 PM PST on November 25, 2014 (GMT -0800)
Normal Hill Weather Station | Change Station
CLOSE
Current Station
Personal Weather Station
Location: Lewiston, ID
Elevation: 805 ft
Nearby Weather Stations

Elev 805 ft 46.42 °N, 117.03 °W | Updated 2 seconds ago

Overcast
Overcast
44.2 °F
Feels Like 44 °F
N
0.0
Wind Variable Wind from SE
Gusts 0.0 mph

Today
High -- | Low -- °F
--% Chance of Precip.
Yesterday
High -- | Low -- °F
Precip. -- in
7:03 AM 4:06 PM
Waxing Crescent, 17% visible
Pressure 30.20 in
Visibility 10.0 miles
Clouds Overcast 1300 ft
Windchill 44 °F
Dew Point 36 °F
Humidity 74%
Rainfall 0.94 in
Snow Depth Not available.
UV 0 out of 12
Pollen .10 out of 12
Air Quality Not available.
Flu Activity Not available.
METAR KLWS 260556Z 08003KT 10SM OVC013 06/04 A3018 RMK AO2 SLP226 60015 T00610044 10072 20056 51001

More Conditions Fewer Conditions

Pressure 30.20 in
Visibility 10.0 miles
Clouds Overcast 1300 ft
Windchill 44 °F
Dew Point 36 °F
Humidity 74%
Rainfall 0.94 in
Snow Depth Not available.
UV 0 out of 12
Pollen .10 out of 12
Air Quality Not available.
Flu Activity Not available.
METAR KLWS 260556Z 08003KT 10SM OVC013 06/04 A3018 RMK AO2 SLP226 60015 T00610044 10072 20056 51001

More Conditions Fewer Conditions

10-Day Weather Forecast

Almanac

Astronomy

Nov. 25, 2014 Rise Set
Actual Time
Civil Twilight
Nautical Twilight
Astronomical Twilight
Moon
Length of Visible Light
Length of Day
Tomorrow will be .
, % of the Moon is Illuminated

Today's Extremes

State Highs State Lows

Community

WunderPhotos

Upload Photos

1,773,691 photos uploaded!

WunderBlogs® & News

Nearby

Air Quality

  Air Quality AQ Index Pollutant
Not available.

Snow Depth

Station Depth Elevation

Earthquake Activity

City Distance Mag. Time & Date
Minimum magnitude displayed is 2.5.

Coastal Water Temperatures

Place Temperature

Nearby Weather Stations